sensor_id;sensor_type;location;lat;lon;timestamp;P1;durP1;ratioP1;P2;durP2;ratioP2
23044;SDS011;11690;51.716;23.066;2023-10-19T00:01:27;28.40;;;13.17;;
23044;SDS011;11690;51.716;23.066;2023-10-19T00:03:55;29.77;;;13.13;;
23044;SDS011;11690;51.716;23.066;2023-10-19T00:06:26;29.70;;;12.83;;
23044;SDS011;11690;51.716;23.066;2023-10-19T00:08:53;31.17;;;15.43;;
23044;SDS011;11690;51.716;23.066;2023-10-19T00:11:20;30.60;;;14.13;;
23044;SDS011;11690;51.716;23.066;2023-10-19T00:13:52;26.23;;;12.53;;
23044;SDS011;11690;51.716;23.066;2023-10-19T00:16:21;23.90;;;11.90;;
23044;SDS011;11690;51.716;23.066;2023-10-19T00:19:02;28.47;;;11.63;;
23044;SDS011;11690;51.716;23.066;2023-10-19T00:21:30;23.37;;;10.77;;
23044;SDS011;11690;51.716;23.066;2023-10-19T00:24:10;22.80;;;10.90;;
23044;SDS011;11690;51.716;23.066;2023-10-19T00:26:37;26.00;;;11.87;;
23044;SDS011;11690;51.716;23.066;2023-10-19T00:29:06;32.80;;;15.33;;
23044;SDS011;11690;51.716;23.066;2023-10-19T00:31:53;44.53;;;23.53;;
23044;SDS011;11690;51.716;23.066;2023-10-19T00:34:20;182.27;;;94.67;;
23044;SDS011;11690;51.716;23.066;2023-10-19T00:36:49;113.20;;;61.90;;
23044;SDS011;11690;51.716;23.066;2023-10-19T00:39:17;215.83;;;128.43;;
23044;SDS011;11690;51.716;23.066;2023-10-19T00:41:48;72.50;;;45.93;;
23044;SDS011;11690;51.716;23.066;2023-10-19T00:44:16;83.40;;;51.20;;
23044;SDS011;11690;51.716;23.066;2023-10-19T00:46:49;92.77;;;48.87;;
23044;SDS011;11690;51.716;23.066;2023-10-19T00:49:31;56.67;;;31.90;;
23044;SDS011;11690;51.716;23.066;2023-10-19T00:51:59;52.27;;;29.43;;
23044;SDS011;11690;51.716;23.066;2023-10-19T00:54:30;43.70;;;20.60;;
23044;SDS011;11690;51.716;23.066;2023-10-19T00:57:09;34.70;;;15.93;;
23044;SDS011;11690;51.716;23.066;2023-10-19T00:59:39;30.50;;;14.23;;
23044;SDS011;11690;51.716;23.066;2023-10-19T01:02:20;33.43;;;16.77;;
23044;SDS011;11690;51.716;23.066;2023-10-19T01:04:49;39.10;;;17.30;;
23044;SDS011;11690;51.716;23.066;2023-10-19T01:07:18;34.33;;;15.37;;
23044;SDS011;11690;51.716;23.066;2023-10-19T01:09:55;47.07;;;24.40;;
23044;SDS011;11690;51.716;23.066;2023-10-19T01:12:23;48.70;;;26.33;;
23044;SDS011;11690;51.716;23.066;2023-10-19T01:17:36;39.23;;;18.27;;
23044;SDS011;11690;51.716;23.066;2023-10-19T01:20:12;50.43;;;25.73;;
23044;SDS011;11690;51.716;23.066;2023-10-19T01:22:55;57.50;;;30.97;;
23044;SDS011;11690;51.716;23.066;2023-10-19T01:25:43;49.00;;;28.40;;
23044;SDS011;11690;51.716;23.066;2023-10-19T01:28:27;56.77;;;30.00;;
23044;SDS011;11690;51.716;23.066;2023-10-19T01:31:20;30.80;;;14.77;;
23044;SDS011;11690;51.716;23.066;2023-10-19T01:33:58;28.57;;;13.33;;
23044;SDS011;11690;51.716;23.066;2023-10-19T01:36:33;32.97;;;13.67;;
23044;SDS011;11690;51.716;23.066;2023-10-19T01:39:10;27.40;;;12.83;;
23044;SDS011;11690;51.716;23.066;2023-10-19T01:41:38;25.60;;;12.40;;
23044;SDS011;11690;51.716;23.066;2023-10-19T01:44:08;28.20;;;12.60;;
23044;SDS011;11690;51.716;23.066;2023-10-19T01:46:41;26.30;;;12.30;;
23044;SDS011;11690;51.716;23.066;2023-10-19T01:49:11;23.67;;;12.43;;
23044;SDS011;11690;51.716;23.066;2023-10-19T01:51:39;28.00;;;12.67;;
23044;SDS011;11690;51.716;23.066;2023-10-19T01:54:06;27.97;;;13.83;;
23044;SDS011;11690;51.716;23.066;2023-10-19T01:56:34;28.93;;;13.33;;
23044;SDS011;11690;51.716;23.066;2023-10-19T01:59:03;29.03;;;12.07;;
23044;SDS011;11690;51.716;23.066;2023-10-19T02:01:31;32.03;;;14.33;;
23044;SDS011;11690;51.716;23.066;2023-10-19T02:04:02;32.00;;;13.00;;
23044;SDS011;11690;51.716;23.066;2023-10-19T02:06:32;28.93;;;13.37;;
23044;SDS011;11690;51.716;23.066;2023-10-19T02:09:02;28.13;;;14.20;;
23044;SDS011;11690;51.716;23.066;2023-10-19T02:11:44;29.30;;;14.03;;
23044;SDS011;11690;51.716;23.066;2023-10-19T02:14:16;35.07;;;15.10;;
23044;SDS011;11690;51.716;23.066;2023-10-19T02:19:19;32.97;;;14.80;;
23044;SDS011;11690;51.716;23.066;2023-10-19T02:21:51;34.67;;;15.83;;
23044;SDS011;11690;51.716;23.066;2023-10-19T02:24:24;35.73;;;15.60;;
23044;SDS011;11690;51.716;23.066;2023-10-19T02:26:54;38.83;;;18.77;;
23044;SDS011;11690;51.716;23.066;2023-10-19T02:29:23;33.03;;;16.37;;
23044;SDS011;11690;51.716;23.066;2023-10-19T02:31:50;54.47;;;28.13;;
23044;SDS011;11690;51.716;23.066;2023-10-19T02:34:18;44.47;;;19.33;;
23044;SDS011;11690;51.716;23.066;2023-10-19T02:36:45;34.83;;;16.03;;
23044;SDS011;11690;51.716;23.066;2023-10-19T02:39:14;34.57;;;16.97;;
23044;SDS011;11690;51.716;23.066;2023-10-19T02:41:43;48.40;;;19.17;;
23044;SDS011;11690;51.716;23.066;2023-10-19T02:44:13;36.17;;;16.00;;
23044;SDS011;11690;51.716;23.066;2023-10-19T02:46:44;43.73;;;17.30;;
23044;SDS011;11690;51.716;23.066;2023-10-19T02:49:13;35.30;;;17.03;;
23044;SDS011;11690;51.716;23.066;2023-10-19T02:51:42;38.20;;;16.87;;
23044;SDS011;11690;51.716;23.066;2023-10-19T02:54:13;34.17;;;16.70;;
23044;SDS011;11690;51.716;23.066;2023-10-19T02:56:47;41.93;;;17.27;;
23044;SDS011;11690;51.716;23.066;2023-10-19T02:59:17;40.53;;;15.17;;
23044;SDS011;11690;51.716;23.066;2023-10-19T03:01:52;34.97;;;16.27;;
23044;SDS011;11690;51.716;23.066;2023-10-19T03:04:29;39.17;;;16.93;;
23044;SDS011;11690;51.716;23.066;2023-10-19T03:06:57;38.93;;;15.83;;
23044;SDS011;11690;51.716;23.066;2023-10-19T03:09:25;41.57;;;17.20;;
23044;SDS011;11690;51.716;23.066;2023-10-19T03:11:57;37.33;;;16.43;;
23044;SDS011;11690;51.716;23.066;2023-10-19T03:14:31;37.47;;;17.10;;
23044;SDS011;11690;51.716;23.066;2023-10-19T03:16:59;41.73;;;17.27;;
23044;SDS011;11690;51.716;23.066;2023-10-19T03:19:28;39.43;;;17.90;;
23044;SDS011;11690;51.716;23.066;2023-10-19T03:21:55;36.87;;;16.60;;
23044;SDS011;11690;51.716;23.066;2023-10-19T03:24:23;43.40;;;18.90;;
23044;SDS011;11690;51.716;23.066;2023-10-19T03:27:03;42.27;;;18.10;;
23044;SDS011;11690;51.716;23.066;2023-10-19T03:29:41;39.40;;;18.57;;
23044;SDS011;11690;51.716;23.066;2023-10-19T03:32:13;52.13;;;21.37;;
23044;SDS011;11690;51.716;23.066;2023-10-19T03:34:41;38.47;;;16.47;;
23044;SDS011;11690;51.716;23.066;2023-10-19T03:37:15;40.13;;;17.03;;
23044;SDS011;11690;51.716;23.066;2023-10-19T03:39:44;43.33;;;18.73;;
23044;SDS011;11690;51.716;23.066;2023-10-19T03:42:13;38.00;;;16.60;;
23044;SDS011;11690;51.716;23.066;2023-10-19T03:44:41;40.17;;;17.43;;
23044;SDS011;11690;51.716;23.066;2023-10-19T03:47:20;35.63;;;16.27;;
23044;SDS011;11690;51.716;23.066;2023-10-19T03:49:48;54.03;;;23.57;;
23044;SDS011;11690;51.716;23.066;2023-10-19T03:52:18;38.93;;;19.07;;
23044;SDS011;11690;51.716;23.066;2023-10-19T03:54:47;38.87;;;17.10;;
23044;SDS011;11690;51.716;23.066;2023-10-19T03:57:15;41.43;;;15.20;;
23044;SDS011;11690;51.716;23.066;2023-10-19T03:59:47;33.47;;;16.13;;
23044;SDS011;11690;51.716;23.066;2023-10-19T04:02:19;36.93;;;16.40;;
23044;SDS011;11690;51.716;23.066;2023-10-19T04:05:02;38.23;;;16.73;;
23044;SDS011;11690;51.716;23.066;2023-10-19T04:07:30;39.80;;;17.30;;
23044;SDS011;11690;51.716;23.066;2023-10-19T04:09:58;48.93;;;18.40;;
23044;SDS011;11690;51.716;23.066;2023-10-19T04:12:35;45.20;;;18.77;;
23044;SDS011;11690;51.716;23.066;2023-10-19T04:15:06;46.77;;;18.60;;
23044;SDS011;11690;51.716;23.066;2023-10-19T04:17:41;35.83;;;17.03;;
23044;SDS011;11690;51.716;23.066;2023-10-19T04:20:09;36.50;;;17.10;;
23044;SDS011;11690;51.716;23.066;2023-10-19T04:22:49;36.47;;;17.60;;
23044;SDS011;11690;51.716;23.066;2023-10-19T04:25:18;54.83;;;20.70;;
23044;SDS011;11690;51.716;23.066;2023-10-19T04:28:03;36.30;;;17.00;;
23044;SDS011;11690;51.716;23.066;2023-10-19T04:30:32;52.13;;;18.83;;
23044;SDS011;11690;51.716;23.066;2023-10-19T04:33:00;39.13;;;16.77;;
23044;SDS011;11690;51.716;23.066;2023-10-19T04:35:28;39.23;;;16.90;;
23044;SDS011;11690;51.716;23.066;2023-10-19T04:38:03;43.63;;;20.33;;
23044;SDS011;11690;51.716;23.066;2023-10-19T04:40:33;91.20;;;30.83;;
23044;SDS011;11690;51.716;23.066;2023-10-19T04:43:01;122.57;;;40.93;;
23044;SDS011;11690;51.716;23.066;2023-10-19T04:45:31;132.43;;;45.70;;
23044;SDS011;11690;51.716;23.066;2023-10-19T04:47:58;121.43;;;36.97;;
23044;SDS011;11690;51.716;23.066;2023-10-19T04:50:26;194.50;;;51.70;;
23044;SDS011;11690;51.716;23.066;2023-10-19T04:52:53;87.20;;;28.63;;
23044;SDS011;11690;51.716;23.066;2023-10-19T04:55:20;72.80;;;27.03;;
23044;SDS011;11690;51.716;23.066;2023-10-19T04:57:48;40.13;;;17.43;;
23044;SDS011;11690;51.716;23.066;2023-10-19T05:00:17;55.20;;;20.37;;
23044;SDS011;11690;51.716;23.066;2023-10-19T05:02:46;62.87;;;22.30;;
23044;SDS011;11690;51.716;23.066;2023-10-19T05:05:14;42.10;;;17.37;;
23044;SDS011;11690;51.716;23.066;2023-10-19T05:07:44;118.17;;;33.60;;
23044;SDS011;11690;51.716;23.066;2023-10-19T05:10:11;139.70;;;39.17;;
23044;SDS011;11690;51.716;23.066;2023-10-19T05:12:38;99.07;;;31.27;;
23044;SDS011;11690;51.716;23.066;2023-10-19T05:15:06;166.83;;;61.53;;
23044;SDS011;11690;51.716;23.066;2023-10-19T05:17:33;39.40;;;18.67;;
23044;SDS011;11690;51.716;23.066;2023-10-19T05:20:01;35.87;;;15.10;;
23044;SDS011;11690;51.716;23.066;2023-10-19T05:22:28;44.90;;;16.63;;
23044;SDS011;11690;51.716;23.066;2023-10-19T05:24:59;30.57;;;14.43;;
23044;SDS011;11690;51.716;23.066;2023-10-19T05:27:28;37.00;;;16.00;;
23044;SDS011;11690;51.716;23.066;2023-10-19T05:29:55;49.27;;;18.07;;
23044;SDS011;11690;51.716;23.066;2023-10-19T05:32:23;141.57;;;47.00;;
23044;SDS011;11690;51.716;23.066;2023-10-19T05:34:51;108.27;;;35.83;;
23044;SDS011;11690;51.716;23.066;2023-10-19T05:37:19;41.17;;;17.30;;
23044;SDS011;11690;51.716;23.066;2023-10-19T05:39:46;36.27;;;15.37;;
23044;SDS011;11690;51.716;23.066;2023-10-19T05:42:13;37.03;;;15.50;;
23044;SDS011;11690;51.716;23.066;2023-10-19T05:44:41;32.67;;;14.80;;
23044;SDS011;11690;51.716;23.066;2023-10-19T05:47:08;48.53;;;18.40;;
23044;SDS011;11690;51.716;23.066;2023-10-19T05:49:35;60.20;;;20.73;;
23044;SDS011;11690;51.716;23.066;2023-10-19T05:52:02;29.57;;;14.80;;
23044;SDS011;11690;51.716;23.066;2023-10-19T05:54:30;32.00;;;14.73;;
23044;SDS011;11690;51.716;23.066;2023-10-19T05:56:58;43.97;;;16.47;;
23044;SDS011;11690;51.716;23.066;2023-10-19T05:59:25;43.73;;;16.27;;
23044;SDS011;11690;51.716;23.066;2023-10-19T06:01:53;33.67;;;15.87;;
23044;SDS011;11690;51.716;23.066;2023-10-19T06:04:21;37.47;;;16.10;;
23044;SDS011;11690;51.716;23.066;2023-10-19T06:06:48;38.77;;;15.20;;
23044;SDS011;11690;51.716;23.066;2023-10-19T06:09:16;34.20;;;15.40;;
23044;SDS011;11690;51.716;23.066;2023-10-19T06:11:44;37.83;;;15.93;;
23044;SDS011;11690;51.716;23.066;2023-10-19T06:14:12;35.53;;;15.97;;
23044;SDS011;11690;51.716;23.066;2023-10-19T06:16:40;141.80;;;49.50;;
23044;SDS011;11690;51.716;23.066;2023-10-19T06:19:07;82.70;;;29.53;;
23044;SDS011;11690;51.716;23.066;2023-10-19T06:21:36;149.57;;;40.77;;
23044;SDS011;11690;51.716;23.066;2023-10-19T06:24:03;60.97;;;22.20;;
23044;SDS011;11690;51.716;23.066;2023-10-19T06:26:31;44.23;;;17.40;;
23044;SDS011;11690;51.716;23.066;2023-10-19T06:28:58;36.03;;;17.13;;
23044;SDS011;11690;51.716;23.066;2023-10-19T06:31:26;39.47;;;17.13;;
23044;SDS011;11690;51.716;23.066;2023-10-19T06:33:56;40.70;;;16.13;;
23044;SDS011;11690;51.716;23.066;2023-10-19T06:36:24;38.60;;;16.53;;
23044;SDS011;11690;51.716;23.066;2023-10-19T06:38:52;47.80;;;19.17;;
23044;SDS011;11690;51.716;23.066;2023-10-19T06:41:21;31.97;;;14.47;;
23044;SDS011;11690;51.716;23.066;2023-10-19T06:43:49;63.53;;;19.43;;
23044;SDS011;11690;51.716;23.066;2023-10-19T06:46:17;53.23;;;18.77;;
23044;SDS011;11690;51.716;23.066;2023-10-19T06:48:44;39.20;;;16.37;;
23044;SDS011;11690;51.716;23.066;2023-10-19T06:51:12;29.73;;;14.10;;
23044;SDS011;11690;51.716;23.066;2023-10-19T06:53:39;32.43;;;15.17;;
23044;SDS011;11690;51.716;23.066;2023-10-19T06:56:06;50.67;;;16.50;;
23044;SDS011;11690;51.716;23.066;2023-10-19T06:58:34;32.13;;;15.43;;
23044;SDS011;11690;51.716;23.066;2023-10-19T07:01:01;31.43;;;13.63;;
23044;SDS011;11690;51.716;23.066;2023-10-19T07:03:38;36.80;;;15.23;;
23044;SDS011;11690;51.716;23.066;2023-10-19T07:06:05;32.10;;;12.57;;
23044;SDS011;11690;51.716;23.066;2023-10-19T07:08:39;25.80;;;12.63;;
23044;SDS011;11690;51.716;23.066;2023-10-19T07:11:07;23.83;;;11.67;;
23044;SDS011;11690;51.716;23.066;2023-10-19T07:13:36;39.10;;;14.77;;
23044;SDS011;11690;51.716;23.066;2023-10-19T07:16:03;23.67;;;11.73;;
23044;SDS011;11690;51.716;23.066;2023-10-19T07:18:31;39.93;;;16.77;;
23044;SDS011;11690;51.716;23.066;2023-10-19T07:20:58;31.27;;;13.07;;
23044;SDS011;11690;51.716;23.066;2023-10-19T07:23:32;20.80;;;11.10;;
23044;SDS011;11690;51.716;23.066;2023-10-19T07:25:59;24.43;;;12.00;;
23044;SDS011;11690;51.716;23.066;2023-10-19T07:28:27;24.77;;;11.65;;
23044;SDS011;11690;51.716;23.066;2023-10-19T07:30:55;25.20;;;11.87;;
23044;SDS011;11690;51.716;23.066;2023-10-19T07:33:28;22.20;;;10.93;;
23044;SDS011;11690;51.716;23.066;2023-10-19T07:35:55;23.30;;;11.13;;
23044;SDS011;11690;51.716;23.066;2023-10-19T07:38:26;22.13;;;10.20;;
23044;SDS011;11690;51.716;23.066;2023-10-19T07:40:55;26.80;;;14.80;;
23044;SDS011;11690;51.716;23.066;2023-10-19T07:43:23;32.95;;;14.85;;
23044;SDS011;11690;51.716;23.066;2023-10-19T07:45:52;22.95;;;11.25;;
23044;SDS011;11690;51.716;23.066;2023-10-19T07:48:20;28.45;;;12.77;;
23044;SDS011;11690;51.716;23.066;2023-10-19T07:50:47;19.13;;;9.77;;
23044;SDS011;11690;51.716;23.066;2023-10-19T07:53:14;19.00;;;9.47;;
23044;SDS011;11690;51.716;23.066;2023-10-19T07:55:41;14.85;;;8.50;;
23044;SDS011;11690;51.716;23.066;2023-10-19T07:58:10;15.02;;;8.55;;
23044;SDS011;11690;51.716;23.066;2023-10-19T08:00:38;18.60;;;10.40;;
23044;SDS011;11690;51.716;23.066;2023-10-19T08:03:06;15.75;;;8.68;;
23044;SDS011;11690;51.716;23.066;2023-10-19T08:05:34;15.40;;;8.63;;
23044;SDS011;11690;51.716;23.066;2023-10-19T08:08:02;17.40;;;8.50;;
23044;SDS011;11690;51.716;23.066;2023-10-19T08:10:32;15.85;;;7.40;;
23044;SDS011;11690;51.716;23.066;2023-10-19T08:13:04;16.23;;;8.10;;
23044;SDS011;11690;51.716;23.066;2023-10-19T08:15:31;16.95;;;7.65;;
23044;SDS011;11690;51.716;23.066;2023-10-19T08:17:58;18.35;;;7.60;;
23044;SDS011;11690;51.716;23.066;2023-10-19T08:20:25;14.73;;;7.40;;
23044;SDS011;11690;51.716;23.066;2023-10-19T08:23:00;16.55;;;7.57;;
23044;SDS011;11690;51.716;23.066;2023-10-19T08:25:29;14.60;;;7.05;;
23044;SDS011;11690;51.716;23.066;2023-10-19T08:28:00;14.18;;;6.55;;
23044;SDS011;11690;51.716;23.066;2023-10-19T08:30:28;17.30;;;6.95;;
23044;SDS011;11690;51.716;23.066;2023-10-19T08:32:56;13.95;;;7.57;;
23044;SDS011;11690;51.716;23.066;2023-10-19T08:35:25;10.85;;;6.32;;
23044;SDS011;11690;51.716;23.066;2023-10-19T08:37:53;20.70;;;11.55;;
23044;SDS011;11690;51.716;23.066;2023-10-19T08:40:21;20.77;;;8.88;;
23044;SDS011;11690;51.716;23.066;2023-10-19T08:42:51;14.10;;;7.10;;
23044;SDS011;11690;51.716;23.066;2023-10-19T08:45:18;8.90;;;5.57;;
23044;SDS011;11690;51.716;23.066;2023-10-19T08:47:52;10.27;;;6.22;;
23044;SDS011;11690;51.716;23.066;2023-10-19T08:50:24;10.88;;;5.45;;
23044;SDS011;11690;51.716;23.066;2023-10-19T08:52:52;9.32;;;5.38;;
23044;SDS011;11690;51.716;23.066;2023-10-19T08:55:20;9.27;;;5.55;;
23044;SDS011;11690;51.716;23.066;2023-10-19T08:58:03;7.63;;;4.70;;
23044;SDS011;11690;51.716;23.066;2023-10-19T09:00:46;7.28;;;4.30;;
23044;SDS011;11690;51.716;23.066;2023-10-19T09:03:15;11.00;;;5.00;;
23044;SDS011;11690;51.716;23.066;2023-10-19T09:05:44;10.27;;;4.75;;
23044;SDS011;11690;51.716;23.066;2023-10-19T09:08:16;6.28;;;4.25;;
23044;SDS011;11690;51.716;23.066;2023-10-19T09:10:45;9.60;;;4.90;;
23044;SDS011;11690;51.716;23.066;2023-10-19T09:13:15;9.68;;;4.93;;
23044;SDS011;11690;51.716;23.066;2023-10-19T09:15:50;8.50;;;4.57;;
23044;SDS011;11690;51.716;23.066;2023-10-19T09:18:26;9.38;;;4.72;;
23044;SDS011;11690;51.716;23.066;2023-10-19T09:20:55;10.13;;;4.70;;
23044;SDS011;11690;51.716;23.066;2023-10-19T09:23:30;7.68;;;4.70;;
23044;SDS011;11690;51.716;23.066;2023-10-19T09:25:58;8.55;;;5.32;;
23044;SDS011;11690;51.716;23.066;2023-10-19T09:28:30;7.00;;;4.40;;
23044;SDS011;11690;51.716;23.066;2023-10-19T09:31:01;12.02;;;4.47;;
23044;SDS011;11690;51.716;23.066;2023-10-19T09:33:29;8.05;;;4.63;;
23044;SDS011;11690;51.716;23.066;2023-10-19T09:35:59;7.85;;;4.50;;
23044;SDS011;11690;51.716;23.066;2023-10-19T09:38:28;8.13;;;4.53;;
23044;SDS011;11690;51.716;23.066;2023-10-19T09:40:55;5.60;;;4.05;;
23044;SDS011;11690;51.716;23.066;2023-10-19T09:43:35;9.07;;;4.80;;
23044;SDS011;11690;51.716;23.066;2023-10-19T09:46:08;8.25;;;4.90;;
23044;SDS011;11690;51.716;23.066;2023-10-19T09:48:40;8.55;;;4.32;;
23044;SDS011;11690;51.716;23.066;2023-10-19T09:51:12;7.68;;;4.28;;
23044;SDS011;11690;51.716;23.066;2023-10-19T09:53:45;11.98;;;4.47;;
23044;SDS011;11690;51.716;23.066;2023-10-19T09:56:17;8.20;;;4.43;;
23044;SDS011;11690;51.716;23.066;2023-10-19T09:58:49;8.85;;;4.35;;
23044;SDS011;11690;51.716;23.066;2023-10-19T10:01:21;7.38;;;3.95;;
23044;SDS011;11690;51.716;23.066;2023-10-19T10:03:49;6.43;;;3.83;;
23044;SDS011;11690;51.716;23.066;2023-10-19T10:06:30;6.47;;;3.90;;
23044;SDS011;11690;51.716;23.066;2023-10-19T10:09:17;60.75;;;23.17;;
23044;SDS011;11690;51.716;23.066;2023-10-19T10:11:57;29.35;;;9.85;;
23044;SDS011;11690;51.716;23.066;2023-10-19T10:14:56;97.30;;;38.25;;
23044;SDS011;11690;51.716;23.066;2023-10-19T10:17:28;39.53;;;19.60;;
23044;SDS011;11690;51.716;23.066;2023-10-19T10:20:28;52.75;;;23.20;;
23044;SDS011;11690;51.716;23.066;2023-10-19T10:23:15;21.10;;;8.68;;
23044;SDS011;11690;51.716;23.066;2023-10-19T10:25:45;15.45;;;6.40;;
23044;SDS011;11690;51.716;23.066;2023-10-19T10:28:15;10.48;;;4.80;;
23044;SDS011;11690;51.716;23.066;2023-10-19T10:33:42;16.77;;;6.40;;
23044;SDS011;11690;51.716;23.066;2023-10-19T10:36:17;19.27;;;7.15;;
23044;SDS011;11690;51.716;23.066;2023-10-19T10:38:50;6.93;;;4.05;;
23044;SDS011;11690;51.716;23.066;2023-10-19T10:41:21;13.60;;;6.93;;
23044;SDS011;11690;51.716;23.066;2023-10-19T10:43:56;8.00;;;5.15;;
23044;SDS011;11690;51.716;23.066;2023-10-19T10:46:26;10.95;;;4.50;;
23044;SDS011;11690;51.716;23.066;2023-10-19T10:48:56;13.00;;;6.95;;
23044;SDS011;11690;51.716;23.066;2023-10-19T10:51:24;12.25;;;5.75;;
23044;SDS011;11690;51.716;23.066;2023-10-19T10:53:56;11.90;;;6.07;;
23044;SDS011;11690;51.716;23.066;2023-10-19T10:56:24;10.18;;;4.93;;
23044;SDS011;11690;51.716;23.066;2023-10-19T10:58:51;9.70;;;4.75;;
23044;SDS011;11690;51.716;23.066;2023-10-19T11:01:31;10.85;;;4.47;;
23044;SDS011;11690;51.716;23.066;2023-10-19T11:04:08;7.82;;;4.50;;
23044;SDS011;11690;51.716;23.066;2023-10-19T11:06:47;7.60;;;4.05;;
23044;SDS011;11690;51.716;23.066;2023-10-19T11:09:16;8.80;;;4.53;;
23044;SDS011;11690;51.716;23.066;2023-10-19T11:11:46;9.30;;;4.30;;
23044;SDS011;11690;51.716;23.066;2023-10-19T11:14:13;9.20;;;4.80;;
23044;SDS011;11690;51.716;23.066;2023-10-19T11:16:41;9.55;;;4.78;;
23044;SDS011;11690;51.716;23.066;2023-10-19T11:19:10;8.65;;;5.05;;
23044;SDS011;11690;51.716;23.066;2023-10-19T11:21:38;10.60;;;5.07;;
23044;SDS011;11690;51.716;23.066;2023-10-19T11:24:25;8.15;;;4.53;;
23044;SDS011;11690;51.716;23.066;2023-10-19T11:26:53;7.97;;;4.00;;
23044;SDS011;11690;51.716;23.066;2023-10-19T11:29:22;10.82;;;5.18;;
23044;SDS011;11690;51.716;23.066;2023-10-19T11:31:59;7.95;;;4.65;;
23044;SDS011;11690;51.716;23.066;2023-10-19T11:34:27;10.10;;;4.55;;
23044;SDS011;11690;51.716;23.066;2023-10-19T11:36:56;9.07;;;4.22;;
23044;SDS011;11690;51.716;23.066;2023-10-19T11:39:23;8.40;;;4.47;;
23044;SDS011;11690;51.716;23.066;2023-10-19T11:41:51;8.30;;;4.40;;
23044;SDS011;11690;51.716;23.066;2023-10-19T11:44:18;6.90;;;4.20;;
23044;SDS011;11690;51.716;23.066;2023-10-19T11:46:46;7.28;;;4.15;;
23044;SDS011;11690;51.716;23.066;2023-10-19T11:49:13;9.65;;;4.45;;
23044;SDS011;11690;51.716;23.066;2023-10-19T11:51:41;8.80;;;4.85;;
23044;SDS011;11690;51.716;23.066;2023-10-19T11:54:08;8.88;;;4.43;;
23044;SDS011;11690;51.716;23.066;2023-10-19T11:56:35;8.27;;;4.53;;
23044;SDS011;11690;51.716;23.066;2023-10-19T11:59:02;8.40;;;4.05;;
23044;SDS011;11690;51.716;23.066;2023-10-19T12:01:30;7.72;;;3.80;;
23044;SDS011;11690;51.716;23.066;2023-10-19T12:03:57;9.18;;;4.43;;
23044;SDS011;11690;51.716;23.066;2023-10-19T12:06:25;7.55;;;4.15;;
23044;SDS011;11690;51.716;23.066;2023-10-19T12:08:52;7.18;;;4.05;;
23044;SDS011;11690;51.716;23.066;2023-10-19T12:11:22;7.82;;;4.18;;
23044;SDS011;11690;51.716;23.066;2023-10-19T12:13:50;7.70;;;4.22;;
23044;SDS011;11690;51.716;23.066;2023-10-19T12:16:18;17.45;;;4.72;;
23044;SDS011;11690;51.716;23.066;2023-10-19T12:18:46;7.00;;;4.05;;
23044;SDS011;11690;51.716;23.066;2023-10-19T12:21:15;9.30;;;4.78;;
23044;SDS011;11690;51.716;23.066;2023-10-19T12:23:46;9.65;;;5.15;;
23044;SDS011;11690;51.716;23.066;2023-10-19T12:26:22;10.57;;;4.43;;
23044;SDS011;11690;51.716;23.066;2023-10-19T12:28:50;10.10;;;5.38;;
23044;SDS011;11690;51.716;23.066;2023-10-19T12:31:18;10.20;;;4.82;;
23044;SDS011;11690;51.716;23.066;2023-10-19T12:33:46;8.90;;;4.25;;
23044;SDS011;11690;51.716;23.066;2023-10-19T12:36:14;8.77;;;4.60;;
23044;SDS011;11690;51.716;23.066;2023-10-19T12:38:59;6.75;;;4.18;;
23044;SDS011;11690;51.716;23.066;2023-10-19T12:41:28;9.93;;;4.75;;
23044;SDS011;11690;51.716;23.066;2023-10-19T12:43:55;8.13;;;4.15;;
23044;SDS011;11690;51.716;23.066;2023-10-19T12:46:27;6.60;;;4.63;;
23044;SDS011;11690;51.716;23.066;2023-10-19T12:48:56;8.95;;;4.20;;
23044;SDS011;11690;51.716;23.066;2023-10-19T12:51:25;7.38;;;4.30;;
23044;SDS011;11690;51.716;23.066;2023-10-19T12:53:52;8.00;;;4.20;;
23044;SDS011;11690;51.716;23.066;2023-10-19T12:56:21;8.35;;;4.03;;
23044;SDS011;11690;51.716;23.066;2023-10-19T12:58:51;9.85;;;4.65;;
23044;SDS011;11690;51.716;23.066;2023-10-19T13:01:19;8.82;;;4.68;;
23044;SDS011;11690;51.716;23.066;2023-10-19T13:03:48;21.70;;;10.25;;
23044;SDS011;11690;51.716;23.066;2023-10-19T13:06:18;14.50;;;7.70;;
23044;SDS011;11690;51.716;23.066;2023-10-19T13:08:46;33.10;;;18.40;;
23044;SDS011;11690;51.716;23.066;2023-10-19T13:11:14;9.82;;;5.05;;
23044;SDS011;11690;51.716;23.066;2023-10-19T13:13:45;8.57;;;4.40;;
23044;SDS011;11690;51.716;23.066;2023-10-19T13:16:14;8.02;;;4.38;;
23044;SDS011;11690;51.716;23.066;2023-10-19T13:18:42;9.65;;;4.38;;
23044;SDS011;11690;51.716;23.066;2023-10-19T13:21:11;7.57;;;3.85;;
23044;SDS011;11690;51.716;23.066;2023-10-19T13:23:44;9.43;;;4.40;;
23044;SDS011;11690;51.716;23.066;2023-10-19T13:26:12;11.30;;;4.20;;
23044;SDS011;11690;51.716;23.066;2023-10-19T13:28:43;10.85;;;4.78;;
23044;SDS011;11690;51.716;23.066;2023-10-19T13:31:11;8.65;;;4.45;;
23044;SDS011;11690;51.716;23.066;2023-10-19T13:33:40;7.80;;;3.80;;
23044;SDS011;11690;51.716;23.066;2023-10-19T13:36:12;18.65;;;8.30;;
23044;SDS011;11690;51.716;23.066;2023-10-19T13:38:40;31.65;;;12.20;;
23044;SDS011;11690;51.716;23.066;2023-10-19T13:41:08;30.63;;;12.05;;
23044;SDS011;11690;51.716;23.066;2023-10-19T13:43:39;31.83;;;12.50;;
23044;SDS011;11690;51.716;23.066;2023-10-19T13:46:06;26.15;;;11.55;;
23044;SDS011;11690;51.716;23.066;2023-10-19T13:48:34;19.10;;;8.68;;
23044;SDS011;11690;51.716;23.066;2023-10-19T13:51:01;10.88;;;5.50;;
23044;SDS011;11690;51.716;23.066;2023-10-19T13:53:40;28.45;;;13.10;;
23044;SDS011;11690;51.716;23.066;2023-10-19T13:56:08;59.28;;;20.77;;
23044;SDS011;11690;51.716;23.066;2023-10-19T13:58:36;31.85;;;12.93;;
23044;SDS011;11690;51.716;23.066;2023-10-19T14:01:08;38.83;;;15.38;;
23044;SDS011;11690;51.716;23.066;2023-10-19T14:03:37;38.42;;;15.18;;
23044;SDS011;11690;51.716;23.066;2023-10-19T14:06:13;39.55;;;15.88;;
23044;SDS011;11690;51.716;23.066;2023-10-19T14:08:41;47.53;;;17.70;;
23044;SDS011;11690;51.716;23.066;2023-10-19T14:11:08;37.97;;;16.30;;
23044;SDS011;11690;51.716;23.066;2023-10-19T14:13:35;30.60;;;13.60;;
23044;SDS011;11690;51.716;23.066;2023-10-19T14:16:06;15.95;;;7.00;;
23044;SDS011;11690;51.716;23.066;2023-10-19T14:18:38;14.20;;;8.38;;
23044;SDS011;11690;51.716;23.066;2023-10-19T14:21:16;15.15;;;8.35;;
23044;SDS011;11690;51.716;23.066;2023-10-19T14:23:47;27.95;;;12.75;;
23044;SDS011;11690;51.716;23.066;2023-10-19T14:26:15;45.75;;;19.17;;
23044;SDS011;11690;51.716;23.066;2023-10-19T14:28:43;32.58;;;12.95;;
23044;SDS011;11690;51.716;23.066;2023-10-19T14:31:10;28.63;;;14.10;;
23044;SDS011;11690;51.716;23.066;2023-10-19T14:33:39;24.08;;;13.05;;
23044;SDS011;11690;51.716;23.066;2023-10-19T14:36:06;27.20;;;16.33;;
23044;SDS011;11690;51.716;23.066;2023-10-19T14:38:34;47.08;;;18.63;;
23044;SDS011;11690;51.716;23.066;2023-10-19T14:41:03;87.28;;;31.70;;
23044;SDS011;11690;51.716;23.066;2023-10-19T14:43:30;329.80;;;81.90;;